sensor_id;sensor_type;location;lat;lon;timestamp;P1;durP1;ratioP1;P2;durP2;ratioP2
51927;SDS011;37953;52.806;18.270;2022-11-15T00:00:55;98.03;;;37.35;;
51927;SDS011;37953;52.806;18.270;2022-11-15T00:03:22;95.50;;;35.60;;
51927;SDS011;37953;52.806;18.270;2022-11-15T00:05:49;94.75;;;36.05;;
51927;SDS011;37953;52.806;18.270;2022-11-15T00:08:15;95.13;;;36.65;;
51927;SDS011;37953;52.806;18.270;2022-11-15T00:10:42;101.78;;;36.92;;
51927;SDS011;37953;52.806;18.270;2022-11-15T00:13:08;95.53;;;36.53;;
51927;SDS011;37953;52.806;18.270;2022-11-15T00:15:37;92.70;;;35.33;;
51927;SDS011;37953;52.806;18.270;2022-11-15T00:18:04;102.00;;;36.65;;
51927;SDS011;37953;52.806;18.270;2022-11-15T00:20:33;108.38;;;38.47;;
51927;SDS011;37953;52.806;18.270;2022-11-15T00:22:59;101.38;;;36.92;;
51927;SDS011;37953;52.806;18.270;2022-11-15T00:25:25;92.18;;;34.30;;
51927;SDS011;37953;52.806;18.270;2022-11-15T00:28:01;96.78;;;34.33;;
51927;SDS011;37953;52.806;18.270;2022-11-15T00:30:28;91.13;;;34.05;;
51927;SDS011;37953;52.806;18.270;2022-11-15T00:32:54;93.90;;;35.00;;
51927;SDS011;37953;52.806;18.270;2022-11-15T00:35:21;93.10;;;36.03;;
51927;SDS011;37953;52.806;18.270;2022-11-15T00:37:47;94.60;;;36.15;;
51927;SDS011;37953;52.806;18.270;2022-11-15T00:40:13;99.20;;;35.28;;
51927;SDS011;37953;52.806;18.270;2022-11-15T00:42:40;100.32;;;36.53;;
51927;SDS011;37953;52.806;18.270;2022-11-15T00:45:10;96.10;;;35.15;;
51927;SDS011;37953;52.806;18.270;2022-11-15T00:47:36;99.38;;;36.63;;
51927;SDS011;37953;52.806;18.270;2022-11-15T00:50:02;97.18;;;35.25;;
51927;SDS011;37953;52.806;18.270;2022-11-15T00:52:28;94.90;;;34.97;;
51927;SDS011;37953;52.806;18.270;2022-11-15T00:54:54;96.50;;;33.30;;
51927;SDS011;37953;52.806;18.270;2022-11-15T00:57:20;96.95;;;34.78;;
51927;SDS011;37953;52.806;18.270;2022-11-15T00:59:46;94.85;;;34.20;;
51927;SDS011;37953;52.806;18.270;2022-11-15T01:02:12;99.38;;;35.38;;
51927;SDS011;37953;52.806;18.270;2022-11-15T01:04:38;95.75;;;34.63;;
51927;SDS011;37953;52.806;18.270;2022-11-15T01:07:04;100.38;;;35.60;;
51927;SDS011;37953;52.806;18.270;2022-11-15T01:09:30;89.40;;;33.35;;
51927;SDS011;37953;52.806;18.270;2022-11-15T01:11:56;92.97;;;35.20;;
51927;SDS011;37953;52.806;18.270;2022-11-15T01:14:22;91.80;;;34.25;;
51927;SDS011;37953;52.806;18.270;2022-11-15T01:16:48;93.90;;;34.83;;
51927;SDS011;37953;52.806;18.270;2022-11-15T01:19:14;87.25;;;33.78;;
51927;SDS011;37953;52.806;18.270;2022-11-15T01:21:40;88.65;;;32.65;;
51927;SDS011;37953;52.806;18.270;2022-11-15T01:24:07;95.30;;;32.03;;
51927;SDS011;37953;52.806;18.270;2022-11-15T01:26:33;90.28;;;33.13;;
51927;SDS011;37953;52.806;18.270;2022-11-15T01:29:14;88.32;;;32.65;;
51927;SDS011;37953;52.806;18.270;2022-11-15T01:31:40;87.05;;;33.25;;
51927;SDS011;37953;52.806;18.270;2022-11-15T01:34:06;94.45;;;32.65;;
51927;SDS011;37953;52.806;18.270;2022-11-15T01:36:32;89.60;;;32.70;;
51927;SDS011;37953;52.806;18.270;2022-11-15T01:38:58;91.53;;;33.00;;
51927;SDS011;37953;52.806;18.270;2022-11-15T01:41:29;96.95;;;33.90;;
51927;SDS011;37953;52.806;18.270;2022-11-15T01:43:58;92.15;;;32.85;;
51927;SDS011;37953;52.806;18.270;2022-11-15T01:47:03;96.13;;;34.63;;
51927;SDS011;37953;52.806;18.270;2022-11-15T01:49:55;96.88;;;33.38;;
51927;SDS011;37953;52.806;18.270;2022-11-15T01:52:25;88.13;;;33.35;;
51927;SDS011;37953;52.806;18.270;2022-11-15T01:54:56;90.47;;;31.90;;
51927;SDS011;37953;52.806;18.270;2022-11-15T01:57:31;95.93;;;34.67;;
51927;SDS011;37953;52.806;18.270;2022-11-15T01:59:57;101.00;;;36.45;;
51927;SDS011;37953;52.806;18.270;2022-11-15T02:02:24;97.35;;;35.13;;
51927;SDS011;37953;52.806;18.270;2022-11-15T02:04:53;98.40;;;35.33;;
51927;SDS011;37953;52.806;18.270;2022-11-15T02:07:20;95.28;;;33.60;;
51927;SDS011;37953;52.806;18.270;2022-11-15T02:09:51;103.57;;;33.63;;
51927;SDS011;37953;52.806;18.270;2022-11-15T02:12:27;93.05;;;33.13;;
51927;SDS011;37953;52.806;18.270;2022-11-15T02:14:53;99.60;;;34.67;;
51927;SDS011;37953;52.806;18.270;2022-11-15T02:17:36;96.43;;;35.10;;
51927;SDS011;37953;52.806;18.270;2022-11-15T02:43:08;93.57;;;34.83;;
51927;SDS011;37953;52.806;18.270;2022-11-15T02:49:17;94.43;;;32.63;;
51927;SDS011;37953;52.806;18.270;2022-11-15T02:51:44;90.00;;;31.63;;
51927;SDS011;37953;52.806;18.270;2022-11-15T02:54:14;87.15;;;31.67;;
51927;SDS011;37953;52.806;18.270;2022-11-15T02:56:45;90.28;;;31.35;;
51927;SDS011;37953;52.806;18.270;2022-11-15T03:02:31;80.70;;;28.83;;
51927;SDS011;37953;52.806;18.270;2022-11-15T03:07:53;75.55;;;29.23;;
51927;SDS011;37953;52.806;18.270;2022-11-15T03:10:32;84.85;;;29.38;;
51927;SDS011;37953;52.806;18.270;2022-11-15T03:13:27;82.53;;;30.02;;
51927;SDS011;37953;52.806;18.270;2022-11-15T03:18:55;83.30;;;30.27;;
51927;SDS011;37953;52.806;18.270;2022-11-15T03:21:26;92.22;;;31.52;;
51927;SDS011;37953;52.806;18.270;2022-11-15T03:23:55;84.00;;;29.17;;
51927;SDS011;37953;52.806;18.270;2022-11-15T03:26:26;79.88;;;29.60;;
51927;SDS011;37953;52.806;18.270;2022-11-15T03:29:41;75.47;;;28.73;;
51927;SDS011;37953;52.806;18.270;2022-11-15T03:31:48;80.55;;;28.75;;
51927;SDS011;37953;52.806;18.270;2022-11-15T03:34:27;82.82;;;29.25;;
51927;SDS011;37953;52.806;18.270;2022-11-15T03:39:50;85.95;;;30.13;;
51927;SDS011;37953;52.806;18.270;2022-11-15T03:45:14;96.05;;;32.50;;
51927;SDS011;37953;52.806;18.270;2022-11-15T03:47:48;92.40;;;33.83;;
51927;SDS011;37953;52.806;18.270;2022-11-15T03:50:36;92.18;;;31.85;;
51927;SDS011;37953;52.806;18.270;2022-11-15T03:53:02;91.45;;;31.67;;
51927;SDS011;37953;52.806;18.270;2022-11-15T03:55:28;87.13;;;32.47;;
51927;SDS011;37953;52.806;18.270;2022-11-15T03:57:58;87.93;;;31.00;;
51927;SDS011;37953;52.806;18.270;2022-11-15T04:00:25;95.00;;;31.70;;
51927;SDS011;37953;52.806;18.270;2022-11-15T04:02:52;94.32;;;32.35;;
51927;SDS011;37953;52.806;18.270;2022-11-15T04:05:18;92.95;;;32.72;;
51927;SDS011;37953;52.806;18.270;2022-11-15T04:07:44;92.15;;;32.40;;
51927;SDS011;37953;52.806;18.270;2022-11-15T04:10:10;81.05;;;29.88;;
51927;SDS011;37953;52.806;18.270;2022-11-15T04:12:38;92.45;;;31.83;;
51927;SDS011;37953;52.806;18.270;2022-11-15T04:20:22;88.55;;;31.25;;
51927;SDS011;37953;52.806;18.270;2022-11-15T04:23:17;98.15;;;33.97;;
51927;SDS011;37953;52.806;18.270;2022-11-15T04:26:11;92.35;;;32.35;;
51927;SDS011;37953;52.806;18.270;2022-11-15T04:28:40;99.82;;;31.13;;
51927;SDS011;37953;52.806;18.270;2022-11-15T04:31:25;94.03;;;31.45;;
51927;SDS011;37953;52.806;18.270;2022-11-15T04:33:51;88.75;;;30.25;;
51927;SDS011;37953;52.806;18.270;2022-11-15T04:36:21;84.05;;;30.92;;
51927;SDS011;37953;52.806;18.270;2022-11-15T04:39:06;87.65;;;31.45;;
51927;SDS011;37953;52.806;18.270;2022-11-15T04:41:32;91.07;;;32.70;;
51927;SDS011;37953;52.806;18.270;2022-11-15T04:43:58;93.53;;;33.08;;
51927;SDS011;37953;52.806;18.270;2022-11-15T04:46:25;99.28;;;32.10;;
51927;SDS011;37953;52.806;18.270;2022-11-15T04:48:51;92.25;;;31.77;;
51927;SDS011;37953;52.806;18.270;2022-11-15T04:51:18;95.18;;;33.53;;
51927;SDS011;37953;52.806;18.270;2022-11-15T04:53:44;98.45;;;32.10;;
51927;SDS011;37953;52.806;18.270;2022-11-15T04:56:16;94.78;;;32.25;;
51927;SDS011;37953;52.806;18.270;2022-11-15T04:58:42;93.85;;;32.10;;
51927;SDS011;37953;52.806;18.270;2022-11-15T05:01:09;95.53;;;32.55;;
51927;SDS011;37953;52.806;18.270;2022-11-15T05:03:37;94.18;;;33.13;;
51927;SDS011;37953;52.806;18.270;2022-11-15T05:06:22;97.28;;;33.63;;
51927;SDS011;37953;52.806;18.270;2022-11-15T05:08:48;91.88;;;32.30;;
51927;SDS011;37953;52.806;18.270;2022-11-15T05:11:14;93.15;;;32.65;;
51927;SDS011;37953;52.806;18.270;2022-11-15T05:13:40;85.50;;;30.52;;
51927;SDS011;37953;52.806;18.270;2022-11-15T05:16:06;91.22;;;29.98;;
51927;SDS011;37953;52.806;18.270;2022-11-15T05:18:32;92.47;;;30.27;;
51927;SDS011;37953;52.806;18.270;2022-11-15T05:21:05;93.05;;;32.55;;
51927;SDS011;37953;52.806;18.270;2022-11-15T05:23:35;90.80;;;30.92;;
51927;SDS011;37953;52.806;18.270;2022-11-15T05:26:02;94.55;;;32.15;;
51927;SDS011;37953;52.806;18.270;2022-11-15T05:28:29;92.03;;;30.60;;
51927;SDS011;37953;52.806;18.270;2022-11-15T05:31:02;90.20;;;30.77;;
51927;SDS011;37953;52.806;18.270;2022-11-15T05:33:29;92.55;;;31.73;;
51927;SDS011;37953;52.806;18.270;2022-11-15T05:36:00;88.25;;;31.17;;
51927;SDS011;37953;52.806;18.270;2022-11-15T05:38:48;92.50;;;31.23;;
51927;SDS011;37953;52.806;18.270;2022-11-15T05:41:16;97.90;;;32.00;;
51927;SDS011;37953;52.806;18.270;2022-11-15T05:43:50;104.78;;;35.42;;
51927;SDS011;37953;52.806;18.270;2022-11-15T05:46:17;105.03;;;35.08;;
51927;SDS011;37953;52.806;18.270;2022-11-15T05:48:44;108.80;;;36.22;;
51927;SDS011;37953;52.806;18.270;2022-11-15T05:51:14;105.18;;;36.38;;
51927;SDS011;37953;52.806;18.270;2022-11-15T05:53:42;99.20;;;32.70;;
51927;SDS011;37953;52.806;18.270;2022-11-15T05:56:09;116.15;;;36.83;;
51927;SDS011;37953;52.806;18.270;2022-11-15T05:58:38;105.57;;;36.55;;
51927;SDS011;37953;52.806;18.270;2022-11-15T06:01:05;110.28;;;35.63;;
51927;SDS011;37953;52.806;18.270;2022-11-15T06:03:31;112.72;;;37.10;;
51927;SDS011;37953;52.806;18.270;2022-11-15T06:05:57;105.78;;;34.53;;
51927;SDS011;37953;52.806;18.270;2022-11-15T06:08:23;206.20;;;37.55;;
51927;SDS011;37953;52.806;18.270;2022-11-15T06:10:49;90.20;;;33.22;;
51927;SDS011;37953;52.806;18.270;2022-11-15T06:13:15;93.32;;;32.70;;
51927;SDS011;37953;52.806;18.270;2022-11-15T06:15:41;92.35;;;32.13;;
51927;SDS011;37953;52.806;18.270;2022-11-15T06:18:07;88.78;;;32.08;;
51927;SDS011;37953;52.806;18.270;2022-11-15T06:20:33;82.95;;;30.30;;
51927;SDS011;37953;52.806;18.270;2022-11-15T06:23:00;91.97;;;30.98;;
51927;SDS011;37953;52.806;18.270;2022-11-15T06:25:27;88.90;;;31.58;;
51927;SDS011;37953;52.806;18.270;2022-11-15T06:27:55;84.40;;;30.90;;
51927;SDS011;37953;52.806;18.270;2022-11-15T06:30:22;83.78;;;29.70;;
51927;SDS011;37953;52.806;18.270;2022-11-15T06:32:49;87.65;;;31.95;;
51927;SDS011;37953;52.806;18.270;2022-11-15T06:35:15;82.28;;;30.42;;
51927;SDS011;37953;52.806;18.270;2022-11-15T06:37:42;82.85;;;30.25;;
51927;SDS011;37953;52.806;18.270;2022-11-15T06:40:14;86.03;;;29.42;;
51927;SDS011;37953;52.806;18.270;2022-11-15T06:42:41;89.88;;;29.70;;
51927;SDS011;37953;52.806;18.270;2022-11-15T06:45:07;84.65;;;29.85;;
51927;SDS011;37953;52.806;18.270;2022-11-15T06:47:33;88.43;;;30.80;;
51927;SDS011;37953;52.806;18.270;2022-11-15T06:49:59;84.60;;;29.50;;
51927;SDS011;37953;52.806;18.270;2022-11-15T06:52:25;89.93;;;31.85;;
51927;SDS011;37953;52.806;18.270;2022-11-15T06:54:52;85.88;;;31.70;;
51927;SDS011;37953;52.806;18.270;2022-11-15T06:57:18;108.47;;;32.40;;
51927;SDS011;37953;52.806;18.270;2022-11-15T06:59:44;93.53;;;31.90;;
51927;SDS011;37953;52.806;18.270;2022-11-15T07:02:13;81.32;;;30.00;;
51927;SDS011;37953;52.806;18.270;2022-11-15T07:04:39;81.85;;;29.70;;
51927;SDS011;37953;52.806;18.270;2022-11-15T07:07:05;77.15;;;28.75;;
51927;SDS011;37953;52.806;18.270;2022-11-15T07:09:31;75.50;;;28.30;;
51927;SDS011;37953;52.806;18.270;2022-11-15T07:11:57;74.28;;;27.80;;
51927;SDS011;37953;52.806;18.270;2022-11-15T07:14:23;78.85;;;29.10;;
51927;SDS011;37953;52.806;18.270;2022-11-15T07:16:49;76.32;;;28.20;;
51927;SDS011;37953;52.806;18.270;2022-11-15T07:19:15;75.03;;;29.30;;
51927;SDS011;37953;52.806;18.270;2022-11-15T07:21:41;76.28;;;29.35;;
51927;SDS011;37953;52.806;18.270;2022-11-15T07:24:07;83.25;;;29.63;;
51927;SDS011;37953;52.806;18.270;2022-11-15T07:26:33;86.38;;;29.92;;
51927;SDS011;37953;52.806;18.270;2022-11-15T07:28:59;85.28;;;30.05;;
51927;SDS011;37953;52.806;18.270;2022-11-15T07:31:25;82.25;;;29.73;;
51927;SDS011;37953;52.806;18.270;2022-11-15T07:33:51;72.95;;;27.58;;
51927;SDS011;37953;52.806;18.270;2022-11-15T07:36:17;77.70;;;29.15;;
51927;SDS011;37953;52.806;18.270;2022-11-15T07:38:43;73.93;;;28.33;;
51927;SDS011;37953;52.806;18.270;2022-11-15T07:41:10;79.63;;;27.85;;
51927;SDS011;37953;52.806;18.270;2022-11-15T07:43:36;80.13;;;28.35;;
51927;SDS011;37953;52.806;18.270;2022-11-15T07:46:05;75.93;;;28.00;;
51927;SDS011;37953;52.806;18.270;2022-11-15T07:48:37;70.43;;;27.00;;
51927;SDS011;37953;52.806;18.270;2022-11-15T07:53:32;68.10;;;27.85;;
51927;SDS011;37953;52.806;18.270;2022-11-15T07:55:58;69.63;;;27.02;;
51927;SDS011;37953;52.806;18.270;2022-11-15T07:58:24;68.65;;;27.60;;
51927;SDS011;37953;52.806;18.270;2022-11-15T08:00:50;77.05;;;28.50;;
51927;SDS011;37953;52.806;18.270;2022-11-15T08:03:16;80.70;;;29.42;;
51927;SDS011;37953;52.806;18.270;2022-11-15T08:05:43;82.50;;;29.60;;
51927;SDS011;37953;52.806;18.270;2022-11-15T08:08:29;178.23;;;36.10;;
51927;SDS011;37953;52.806;18.270;2022-11-15T08:10:56;97.55;;;34.20;;
51927;SDS011;37953;52.806;18.270;2022-11-15T08:13:24;103.00;;;35.53;;
51927;SDS011;37953;52.806;18.270;2022-11-15T08:15:50;103.07;;;33.97;;
51927;SDS011;37953;52.806;18.270;2022-11-15T08:18:16;112.35;;;34.50;;
51927;SDS011;37953;52.806;18.270;2022-11-15T08:20:42;100.68;;;34.00;;
51927;SDS011;37953;52.806;18.270;2022-11-15T08:23:10;110.35;;;34.58;;
51927;SDS011;37953;52.806;18.270;2022-11-15T08:25:43;109.25;;;36.03;;
51927;SDS011;37953;52.806;18.270;2022-11-15T08:28:09;109.00;;;37.17;;
51927;SDS011;37953;52.806;18.270;2022-11-15T08:30:37;102.13;;;34.42;;
51927;SDS011;37953;52.806;18.270;2022-11-15T08:33:09;88.70;;;31.20;;
51927;SDS011;37953;52.806;18.270;2022-11-15T08:35:36;87.75;;;30.98;;
51927;SDS011;37953;52.806;18.270;2022-11-15T08:38:02;87.22;;;32.75;;
51927;SDS011;37953;52.806;18.270;2022-11-15T08:40:28;85.95;;;30.88;;
51927;SDS011;37953;52.806;18.270;2022-11-15T08:42:54;82.25;;;31.63;;
51927;SDS011;37953;52.806;18.270;2022-11-15T08:45:20;75.30;;;29.60;;
51927;SDS011;37953;52.806;18.270;2022-11-15T08:47:53;82.97;;;30.85;;
51927;SDS011;37953;52.806;18.270;2022-11-15T08:50:19;91.85;;;32.70;;
51927;SDS011;37953;52.806;18.270;2022-11-15T08:52:46;93.97;;;34.10;;
51927;SDS011;37953;52.806;18.270;2022-11-15T08:55:13;93.70;;;32.72;;
51927;SDS011;37953;52.806;18.270;2022-11-15T08:57:40;92.57;;;33.33;;
51927;SDS011;37953;52.806;18.270;2022-11-15T09:00:12;79.15;;;30.70;;
51927;SDS011;37953;52.806;18.270;2022-11-15T09:02:39;73.43;;;29.27;;
51927;SDS011;37953;52.806;18.270;2022-11-15T09:05:05;76.97;;;28.50;;
51927;SDS011;37953;52.806;18.270;2022-11-15T09:07:32;74.07;;;29.33;;
51927;SDS011;37953;52.806;18.270;2022-11-15T09:09:58;73.38;;;28.85;;
51927;SDS011;37953;52.806;18.270;2022-11-15T09:12:24;86.75;;;31.05;;
51927;SDS011;37953;52.806;18.270;2022-11-15T09:14:51;87.22;;;31.35;;
51927;SDS011;37953;52.806;18.270;2022-11-15T09:17:17;89.18;;;30.67;;
51927;SDS011;37953;52.806;18.270;2022-11-15T09:19:43;91.53;;;32.25;;
51927;SDS011;37953;52.806;18.270;2022-11-15T09:22:09;86.43;;;31.02;;
51927;SDS011;37953;52.806;18.270;2022-11-15T09:24:35;90.03;;;31.75;;
51927;SDS011;37953;52.806;18.270;2022-11-15T09:27:01;86.95;;;31.77;;
51927;SDS011;37953;52.806;18.270;2022-11-15T09:29:28;90.20;;;33.22;;
51927;SDS011;37953;52.806;18.270;2022-11-15T09:31:54;94.18;;;33.13;;
51927;SDS011;37953;52.806;18.270;2022-11-15T09:34:20;89.68;;;33.08;;
51927;SDS011;37953;52.806;18.270;2022-11-15T09:36:46;98.75;;;34.40;;
51927;SDS011;37953;52.806;18.270;2022-11-15T09:39:12;86.07;;;33.22;;
51927;SDS011;37953;52.806;18.270;2022-11-15T09:51:03;104.35;;;35.28;;
51927;SDS011;37953;52.806;18.270;2022-11-15T09:56:19;112.55;;;39.80;;
51927;SDS011;37953;52.806;18.270;2022-11-15T09:59:00;112.05;;;38.78;;
51927;SDS011;37953;52.806;18.270;2022-11-15T10:04:51;112.28;;;39.55;;
51927;SDS011;37953;52.806;18.270;2022-11-15T10:10:24;112.18;;;39.47;;
51927;SDS011;37953;52.806;18.270;2022-11-15T10:12:54;112.78;;;38.20;;
51927;SDS011;37953;52.806;18.270;2022-11-15T10:15:21;113.20;;;40.50;;
51927;SDS011;37953;52.806;18.270;2022-11-15T10:21:08;97.03;;;35.72;;
51927;SDS011;37953;52.806;18.270;2022-11-15T10:23:42;90.40;;;35.45;;
51927;SDS011;37953;52.806;18.270;2022-11-15T10:26:10;95.38;;;36.15;;
51927;SDS011;37953;52.806;18.270;2022-11-15T10:28:40;102.22;;;39.28;;
51927;SDS011;37953;52.806;18.270;2022-11-15T10:31:40;98.25;;;35.15;;
51927;SDS011;37953;52.806;18.270;2022-11-15T10:34:41;102.55;;;36.22;;
51927;SDS011;37953;52.806;18.270;2022-11-15T10:36:56;103.85;;;36.97;;
51927;SDS011;37953;52.806;18.270;2022-11-15T10:39:24;107.45;;;35.97;;
51927;SDS011;37953;52.806;18.270;2022-11-15T10:41:51;100.03;;;37.13;;
51927;SDS011;37953;52.806;18.270;2022-11-15T10:46:45;94.40;;;35.17;;
51927;SDS011;37953;52.806;18.270;2022-11-15T10:49:27;76.65;;;30.50;;
51927;SDS011;37953;52.806;18.270;2022-11-15T10:54:33;74.78;;;29.35;;
51927;SDS011;37953;52.806;18.270;2022-11-15T10:57:20;73.68;;;29.30;;
51927;SDS011;37953;52.806;18.270;2022-11-15T10:59:53;66.10;;;27.30;;
51927;SDS011;37953;52.806;18.270;2022-11-15T11:08:04;76.63;;;31.27;;
51927;SDS011;37953;52.806;18.270;2022-11-15T11:13:34;65.32;;;27.10;;
51927;SDS011;37953;52.806;18.270;2022-11-15T11:16:19;66.03;;;26.75;;
51927;SDS011;37953;52.806;18.270;2022-11-15T11:27:59;63.22;;;25.58;;
51927;SDS011;37953;52.806;18.270;2022-11-15T11:33:44;61.45;;;26.90;;
51927;SDS011;37953;52.806;18.270;2022-11-15T11:39:16;63.70;;;26.50;;
51927;SDS011;37953;52.806;18.270;2022-11-15T11:51:03;65.03;;;26.17;;
51927;SDS011;37953;52.806;18.270;2022-11-15T11:53:41;56.65;;;24.17;;
51927;SDS011;37953;52.806;18.270;2022-11-15T11:56:18;54.45;;;24.60;;
51927;SDS011;37953;52.806;18.270;2022-11-15T11:58:57;61.03;;;24.50;;
51927;SDS011;37953;52.806;18.270;2022-11-15T12:01:36;60.60;;;25.50;;
51927;SDS011;37953;52.806;18.270;2022-11-15T12:07:25;55.03;;;24.40;;
51927;SDS011;37953;52.806;18.270;2022-11-15T12:15:27;62.70;;;26.38;;
51927;SDS011;37953;52.806;18.270;2022-11-15T12:17:57;62.13;;;27.85;;
51927;SDS011;37953;52.806;18.270;2022-11-15T12:20:28;67.90;;;27.50;;
51927;SDS011;37953;52.806;18.270;2022-11-15T12:23:31;70.88;;;29.17;;
51927;SDS011;37953;52.806;18.270;2022-11-15T12:26:05;60.30;;;25.67;;
51927;SDS011;37953;52.806;18.270;2022-11-15T12:28:49;62.55;;;26.83;;
51927;SDS011;37953;52.806;18.270;2022-11-15T12:34:13;63.97;;;27.00;;
51927;SDS011;37953;52.806;18.270;2022-11-15T12:36:48;68.55;;;28.05;;
51927;SDS011;37953;52.806;18.270;2022-11-15T12:39:16;68.78;;;28.58;;
51927;SDS011;37953;52.806;18.270;2022-11-15T12:52:04;62.90;;;26.77;;
51927;SDS011;37953;52.806;18.270;2022-11-15T13:02:31;75.38;;;29.45;;
51927;SDS011;37953;52.806;18.270;2022-11-15T13:17:39;75.55;;;29.77;;
51927;SDS011;37953;52.806;18.270;2022-11-15T13:22:49;69.32;;;29.30;;
51927;SDS011;37953;52.806;18.270;2022-11-15T13:28:28;65.03;;;28.27;;
51927;SDS011;37953;52.806;18.270;2022-11-15T13:31:03;74.95;;;29.10;;
51927;SDS011;37953;52.806;18.270;2022-11-15T13:36:50;67.47;;;27.48;;
51927;SDS011;37953;52.806;18.270;2022-11-15T13:44:39;73.28;;;28.73;;
51927;SDS011;37953;52.806;18.270;2022-11-15T13:47:30;70.18;;;29.55;;
51927;SDS011;37953;52.806;18.270;2022-11-15T13:49:57;71.70;;;29.85;;
51927;SDS011;37953;52.806;18.270;2022-11-15T13:52:28;73.53;;;28.48;;
51927;SDS011;37953;52.806;18.270;2022-11-15T13:55:09;68.90;;;29.25;;
51927;SDS011;37953;52.806;18.270;2022-11-15T13:57:42;96.30;;;35.40;;
51927;SDS011;37953;52.806;18.270;2022-11-15T14:00:26;80.50;;;31.30;;
51927;SDS011;37953;52.806;18.270;2022-11-15T14:03:18;77.30;;;31.90;;
51927;SDS011;37953;52.806;18.270;2022-11-15T14:06:13;79.22;;;32.63;;
51927;SDS011;37953;52.806;18.270;2022-11-15T14:08:42;75.68;;;31.13;;
51927;SDS011;37953;52.806;18.270;2022-11-15T14:11:18;90.07;;;34.95;;
51927;SDS011;37953;52.806;18.270;2022-11-15T14:16:34;73.93;;;29.88;;
51927;SDS011;37953;52.806;18.270;2022-11-15T14:19:02;86.00;;;34.13;;
51927;SDS011;37953;52.806;18.270;2022-11-15T14:21:30;89.32;;;36.95;;
51927;SDS011;37953;52.806;18.270;2022-11-15T14:26:45;96.40;;;39.60;;
51927;SDS011;37953;52.806;18.270;2022-11-15T14:29:22;90.85;;;39.53;;
51927;SDS011;37953;52.806;18.270;2022-11-15T14:31:48;85.72;;;38.08;;
51927;SDS011;37953;52.806;18.270;2022-11-15T14:34:14;84.40;;;34.15;;
51927;SDS011;37953;52.806;18.270;2022-11-15T14:36:43;83.60;;;33.88;;
51927;SDS011;37953;52.806;18.270;2022-11-15T14:39:09;145.23;;;35.67;;
51927;SDS011;37953;52.806;18.270;2022-11-15T14:41:35;75.55;;;30.73;;
51927;SDS011;37953;52.806;18.270;2022-11-15T14:44:05;87.43;;;31.60;;
51927;SDS011;37953;52.806;18.270;2022-11-15T14:46:31;75.05;;;30.05;;
51927;SDS011;37953;52.806;18.270;2022-11-15T14:48:58;71.32;;;28.95;;
51927;SDS011;37953;52.806;18.270;2022-11-15T14:51:24;67.30;;;27.25;;
51927;SDS011;37953;52.806;18.270;2022-11-15T14:53:51;65.40;;;26.67;;
51927;SDS011;37953;52.806;18.270;2022-11-15T14:56:17;62.17;;;25.30;;
51927;SDS011;37953;52.806;18.270;2022-11-15T14:58:44;67.35;;;27.60;;
51927;SDS011;37953;52.806;18.270;2022-11-15T15:01:20;70.10;;;30.35;;
51927;SDS011;37953;52.806;18.270;2022-11-15T15:03:50;63.75;;;27.30;;
51927;SDS011;37953;52.806;18.270;2022-11-15T15:06:22;66.28;;;27.48;;
51927;SDS011;37953;52.806;18.270;2022-11-15T15:11:16;86.90;;;32.42;;
51927;SDS011;37953;52.806;18.270;2022-11-15T15:13:46;86.25;;;31.83;;
51927;SDS011;37953;52.806;18.270;2022-11-15T15:16:12;81.10;;;31.63;;
51927;SDS011;37953;52.806;18.270;2022-11-15T15:18:39;74.65;;;31.05;;
51927;SDS011;37953;52.806;18.270;2022-11-15T15:21:11;73.20;;;29.60;;
51927;SDS011;37953;52.806;18.270;2022-11-15T15:23:54;67.78;;;27.70;;
51927;SDS011;37953;52.806;18.270;2022-11-15T15:26:20;65.65;;;27.75;;
51927;SDS011;37953;52.806;18.270;2022-11-15T15:28:53;58.80;;;25.58;;
51927;SDS011;37953;52.806;18.270;2022-11-15T15:31:19;60.95;;;26.30;;
51927;SDS011;37953;52.806;18.270;2022-11-15T15:33:45;63.17;;;26.63;;
51927;SDS011;37953;52.806;18.270;2022-11-15T15:36:11;57.38;;;25.13;;
51927;SDS011;37953;52.806;18.270;2022-11-15T15:38:38;61.22;;;25.92;;
51927;SDS011;37953;52.806;18.270;2022-11-15T15:41:09;64.63;;;27.60;;
51927;SDS011;37953;52.806;18.270;2022-11-15T15:43:40;66.10;;;27.65;;
51927;SDS011;37953;52.806;18.270;2022-11-15T15:46:14;78.53;;;34.72;;
51927;SDS011;37953;52.806;18.270;2022-11-15T15:51:13;72.13;;;32.63;;
51927;SDS011;37953;52.806;18.270;2022-11-15T15:53:41;71.85;;;32.35;;
51927;SDS011;37953;52.806;18.270;2022-11-15T15:56:08;64.00;;;27.25;;
51927;SDS011;37953;52.806;18.270;2022-11-15T15:58:35;61.92;;;27.23;;
51927;SDS011;37953;52.806;18.270;2022-11-15T16:01:01;69.68;;;28.48;;
51927;SDS011;37953;52.806;18.270;2022-11-15T16:03:27;66.70;;;27.40;;
51927;SDS011;37953;52.806;18.270;2022-11-15T16:05:53;55.75;;;23.85;;
51927;SDS011;37953;52.806;18.270;2022-11-15T16:08:20;60.72;;;26.33;;
51927;SDS011;37953;52.806;18.270;2022-11-15T16:10:50;69.38;;;29.70;;
51927;SDS011;37953;52.806;18.270;2022-11-15T16:13:18;62.38;;;26.02;;
51927;SDS011;37953;52.806;18.270;2022-11-15T16:15:44;58.30;;;24.98;;
51927;SDS011;37953;52.806;18.270;2022-11-15T16:18:15;61.57;;;26.43;;
51927;SDS011;37953;52.806;18.270;2022-11-15T16:20:43;60.40;;;26.65;;
51927;SDS011;37953;52.806;18.270;2022-11-15T16:23:18;58.53;;;26.50;;
51927;SDS011;37953;52.806;18.270;2022-11-15T16:25:47;67.68;;;29.05;;
51927;SDS011;37953;52.806;18.270;2022-11-15T16:28:28;59.35;;;26.63;;
51927;SDS011;37953;52.806;18.270;2022-11-15T16:31:03;60.30;;;25.05;;
51927;SDS011;37953;52.806;18.270;2022-11-15T16:33:48;53.20;;;23.08;;
51927;SDS011;37953;52.806;18.270;2022-11-15T16:36:18;52.05;;;24.27;;
51927;SDS011;37953;52.806;18.270;2022-11-15T16:39:04;47.53;;;19.02;;
51927;SDS011;37953;52.806;18.270;2022-11-15T16:41:30;73.57;;;31.65;;
51927;SDS011;37953;52.806;18.270;2022-11-15T16:44:00;80.10;;;31.83;;
51927;SDS011;37953;52.806;18.270;2022-11-15T16:46:26;75.82;;;31.77;;
51927;SDS011;37953;52.806;18.270;2022-11-15T16:48:54;73.25;;;30.60;;
51927;SDS011;37953;52.806;18.270;2022-11-15T16:51:20;75.13;;;31.30;;
51927;SDS011;37953;52.806;18.270;2022-11-15T16:53:47;73.72;;;30.10;;
51927;SDS011;37953;52.806;18.270;2022-11-15T16:58:49;59.08;;;25.70;;
51927;SDS011;37953;52.806;18.270;2022-11-15T17:01:17;77.38;;;30.80;;
51927;SDS011;37953;52.806;18.270;2022-11-15T17:03:47;62.88;;;26.88;;
51927;SDS011;37953;52.806;18.270;2022-11-15T17:06:14;61.53;;;26.10;;
51927;SDS011;37953;52.806;18.270;2022-11-15T17:08:40;57.97;;;24.77;;
51927;SDS011;37953;52.806;18.270;2022-11-15T17:11:07;70.88;;;29.27;;
51927;SDS011;37953;52.806;18.270;2022-11-15T17:13:33;71.15;;;30.67;;
51927;SDS011;37953;52.806;18.270;2022-11-15T17:16:03;72.20;;;29.33;;
51927;SDS011;37953;52.806;18.270;2022-11-15T17:20:56;83.20;;;29.02;;
51927;SDS011;37953;52.806;18.270;2022-11-15T17:23:22;83.55;;;29.35;;
51927;SDS011;37953;52.806;18.270;2022-11-15T17:25:56;73.07;;;27.48;;